Time;durP1;ratioP1;P1;durP2;ratioP2;P2;SDS_P1;SDS_P2;PMS_P1;PMS_P2;Temp;Humidity;BMP_temperature;BMP_pressure;BME280_temperature;BME280_humidity;BME280_pressure;Samples;Min_cycle;Max_cycle;Signal;HPM_P1;HPM_P2
2023/08/22 00:00:04;;;;;;;3.40;2.53;;;22.30;58.50;;;;;;5023465;28;20131;-54
2023/08/22 00:02:38;;;;;;;3.30;3.00;;;22.30;58.50;;;;;;5031242;28;20046;-54
2023/08/22 00:05:05;;;;;;;3.65;2.97;;;22.20;58.40;;;;;;5031635;28;20541;-54
2023/08/22 00:07:39;;;;;;;2.85;2.65;;;22.20;58.50;;;;;;5030370;28;20533;-54
2023/08/22 00:10:10;;;;;;;2.95;2.67;;;22.20;58.60;;;;;;5030757;28;20045;-52
2023/08/22 00:12:37;;;;;;;3.35;2.67;;;22.20;58.60;;;;;;5028921;28;20076;-54
2023/08/22 00:15:08;;;;;;;5.80;2.92;;;22.10;58.60;;;;;;5031438;28;20095;-55
2023/08/22 00:17:40;;;;;;;2.72;2.53;;;22.10;59.20;;;;;;5030106;28;20045;-54
2023/08/22 00:20:08;;;;;;;7.03;3.40;;;22.10;58.70;;;;;;5031028;28;20095;-54
2023/08/22 00:22:38;;;;;;;3.08;2.78;;;22.10;58.70;;;;;;5030467;28;20053;-55
2023/08/22 00:25:06;;;;;;;2.30;2.20;;;22.00;58.90;;;;;;5023887;28;20137;-51
2023/08/22 00:27:38;;;;;;;2.55;2.35;;;22.00;58.90;;;;;;5029966;28;20068;-55
2023/08/22 00:30:10;;;;;;;3.22;3.03;;;21.90;59.20;;;;;;5011628;28;20095;-55
2023/08/22 00:32:39;;;;;;;2.70;2.53;;;21.90;59.10;;;;;;5030716;28;20055;-53
2023/08/22 00:35:06;;;;;;;5.30;2.50;;;21.90;59.10;;;;;;5012889;28;20791;-53
2023/08/22 00:37:36;;;;;;;4.70;2.70;;;21.90;59.10;;;;;;5029785;28;20474;-52
2023/08/22 00:40:03;;;;;;;4.15;2.58;;;21.80;59.10;;;;;;5030537;28;20533;-52
2023/08/22 00:42:32;;;;;;;4.90;2.80;;;21.80;59.10;;;;;;5009962;28;20152;-55
2023/08/22 00:44:59;;;;;;;4.50;2.78;;;21.80;59.10;;;;;;5029396;28;20506;-52
2023/08/22 00:47:29;;;;;;;2.58;2.42;;;21.70;59.10;;;;;;5009712;28;20056;-54
2023/08/22 00:49:55;;;;;;;2.67;2.47;;;21.70;59.20;;;;;;5028447;28;20519;-52
2023/08/22 00:52:22;;;;;;;3.72;2.63;;;21.70;59.20;;;;;;5009414;28;20065;-53
2023/08/22 00:54:54;;;;;;;;;;;21.60;59.40;;;;;;5011534;28;20067;-54
2023/08/22 00:57:30;;;;;;;2.65;2.45;;;21.70;58.80;;;;;;5012191;28;20004;-55
2023/08/22 01:00:06;;;;;;;4.70;3.70;;;21.60;58.80;;;;;;5027094;28;20041;-54
2023/08/22 01:02:37;;;;;;;3.90;3.03;;;21.60;59.30;;;;;;5030165;28;20049;-55
2023/08/22 01:05:04;;;;;;;3.75;3.42;;;21.50;59.10;;;;;;5013102;28;20101;-53
2023/08/22 01:07:37;;;;;;;3.30;2.50;;;21.50;59.20;;;;;;5029364;28;20431;-54
2023/08/22 01:10:11;;;;;;;6.00;2.83;;;21.50;59.60;;;;;;5028394;28;20034;-54
2023/08/22 01:12:47;;;;;;;4.03;3.10;;;21.40;59.50;;;;;;5012103;28;20500;-53
2023/08/22 01:15:30;;;;;;;3.38;2.60;;;21.40;59.70;;;;;;5012973;28;20046;-54
2023/08/22 01:17:58;;;;;;;7.60;2.95;;;21.50;60.30;;;;;;5028694;28;20056;-55
2023/08/22 01:20:27;;;;;;;3.28;2.83;;;21.40;59.70;;;;;;5029992;28;20692;-54
2023/08/22 01:22:54;;;;;;;2.70;2.45;;;21.40;59.60;;;;;;5029019;28;20095;-53
2023/08/22 01:25:21;;;;;;;3.28;2.30;;;21.30;59.60;;;;;;5029622;28;20041;-55
2023/08/22 01:28:27;;;;;;;3.00;2.70;;;21.30;59.70;;;;;;5028695;28;20038;-55
2023/08/22 01:31:31;;;;;;;4.05;2.70;;;21.30;60.10;;;;;;5028826;28;20095;-52
2023/08/22 01:34:08;;;;;;;3.78;2.78;;;21.30;60.10;;;;;;5028901;28;20060;-54
2023/08/22 01:36:37;;;;;;;3.40;2.50;;;21.20;59.90;;;;;;5027484;28;20053;-51
2023/08/22 01:39:08;;;;;;;3.83;3.17;;;21.20;59.70;;;;;;5014927;28;20077;-52
2023/08/22 01:41:37;;;;;;;4.75;2.90;;;21.20;59.90;;;;;;5008617;28;20049;-55
2023/08/22 01:44:04;;;;;;;2.92;2.72;;;21.20;60.00;;;;;;5012516;28;20499;-53
2023/08/22 01:46:31;;;;;;;3.08;2.85;;;21.10;60.00;;;;;;5009327;28;20049;-55
2023/08/22 01:48:58;;;;;;;3.35;3.05;;;21.10;60.20;;;;;;5029992;28;20124;-52
2023/08/22 01:51:26;;;;;;;3.40;3.05;;;21.10;60.20;;;;;;5029123;28;20069;-53
2023/08/22 01:53:54;;;;;;;3.08;2.60;;;21.10;60.30;;;;;;5007581;28;20065;-54
2023/08/22 01:56:21;;;;;;;2.88;2.67;;;21.10;60.30;;;;;;5010924;28;20045;-54
2023/08/22 01:58:48;;;;;;;4.57;3.13;;;21.00;60.20;;;;;;5010181;28;20053;-53
2023/08/22 02:01:15;;;;;;;3.08;2.72;;;21.00;60.30;;;;;;5011958;28;20593;-52
2023/08/22 02:03:46;;;;;;;3.22;2.80;;;21.00;60.30;;;;;;5028093;28;20041;-55
2023/08/22 02:06:15;;;;;;;3.03;2.58;;;21.00;60.40;;;;;;5022952;28;20034;-53
2023/08/22 02:08:42;;;;;;;3.42;2.72;;;20.90;60.40;;;;;;5027886;28;20145;-54
2023/08/22 02:11:11;;;;;;;2.55;2.35;;;20.90;60.50;;;;;;5027697;28;20072;-54
2023/08/22 02:13:47;;;;;;;3.58;3.15;;;20.90;60.60;;;;;;5011421;28;20411;-53
2023/08/22 02:16:19;;;;;;;4.05;2.90;;;20.90;60.50;;;;;;5010422;28;20054;-53
2023/08/22 02:18:45;;;;;;;4.22;3.15;;;20.90;60.50;;;;;;5027929;28;20474;-55
2023/08/22 02:21:12;;;;;;;4.60;3.10;;;20.90;60.60;;;;;;5028674;28;20038;-53
2023/08/22 02:23:41;;;;;;;3.10;2.90;;;20.80;60.60;;;;;;5028463;28;20069;-53
2023/08/22 02:26:09;;;;;;;3.03;2.70;;;20.80;60.70;;;;;;5027081;28;20045;-53
2023/08/22 02:28:37;;;;;;;5.05;3.00;;;20.80;61.00;;;;;;5026046;28;20037;-51
2023/08/22 02:31:06;;;;;;;3.65;2.90;;;20.90;61.10;;;;;;5009973;28;20458;-51
2023/08/22 02:33:32;;;;;;;3.72;3.25;;;20.80;61.00;;;;;;5008667;28;20416;-54
2023/08/22 02:35:59;;;;;;;5.13;3.10;;;20.80;61.10;;;;;;5012814;28;20046;-53
2023/08/22 02:38:34;;;;;;;;;;;20.80;61.10;;;;;;5011537;28;20061;-52
2023/08/22 02:41:01;;;;;;;3.75;2.70;;;20.90;60.60;;;;;;5032362;28;19965;-55
2023/08/22 02:43:30;;;;;;;3.15;2.80;;;20.80;60.70;;;;;;5033123;28;20049;-55
2023/08/22 02:45:59;;;;;;;3.58;2.67;;;20.80;60.90;;;;;;5029366;28;20037;-55
2023/08/22 02:48:32;;;;;;;3.17;2.88;;;20.80;61.10;;;;;;5029375;28;20099;-51
2023/08/22 02:50:59;;;;;;;7.37;3.23;;;20.80;61.20;;;;;;5029635;28;20033;-54
2023/08/22 02:53:26;;;;;;;4.03;3.03;;;20.70;60.90;;;;;;5033055;28;20052;-55
2023/08/22 02:55:53;;;;;;;5.28;2.90;;;20.80;61.10;;;;;;5010710;28;20053;-54
2023/08/22 02:58:20;;;;;;;3.65;2.72;;;20.70;61.20;;;;;;5032500;28;20103;-55
2023/08/22 03:00:47;;;;;;;3.10;2.83;;;20.70;61.10;;;;;;5025571;28;20054;-55
2023/08/22 03:03:14;;;;;;;3.63;2.63;;;20.70;61.20;;;;;;5014895;28;20041;-53
2023/08/22 03:05:44;;;;;;;3.22;3.00;;;20.60;61.20;;;;;;5014438;28;20132;-52
2023/08/22 03:08:11;;;;;;;4.45;3.00;;;20.60;61.40;;;;;;5013995;28;20056;-51
2023/08/22 03:10:40;;;;;;;3.08;2.65;;;20.60;61.30;;;;;;5010463;28;20037;-53
2023/08/22 03:13:09;;;;;;;4.50;3.10;;;20.60;61.30;;;;;;5014869;28;20534;-54
2023/08/22 03:15:40;;;;;;;3.65;2.97;;;20.60;61.60;;;;;;5028908;28;20073;-53
2023/08/22 03:18:10;;;;;;;3.50;2.75;;;20.50;61.30;;;;;;5014751;28;20595;-54
2023/08/22 03:20:37;;;;;;;2.85;2.65;;;20.50;61.50;;;;;;5016494;28;20631;-51
2023/08/22 03:23:05;;;;;;;4.75;2.70;;;20.60;61.60;;;;;;5014131;28;20045;-53
2023/08/22 03:25:33;;;;;;;4.05;3.05;;;20.50;62.00;;;;;;5032089;28;20104;-52
2023/08/22 03:28:00;;;;;;;3.17;2.70;;;20.50;62.20;;;;;;5009146;28;20415;-54
2023/08/22 03:30:29;;;;;;;3.08;2.88;;;20.50;62.10;;;;;;5030692;28;20042;-52
2023/08/22 03:33:04;;;;;;;3.10;2.83;;;20.50;62.00;;;;;;5028878;28;20064;-55
2023/08/22 03:35:31;;;;;;;4.80;3.42;;;20.40;61.90;;;;;;5013879;28;20048;-52
2023/08/22 03:37:58;;;;;;;3.65;3.25;;;20.40;61.80;;;;;;5013485;28;20049;-53
2023/08/22 03:40:32;;;;;;;2.97;2.78;;;20.40;61.80;;;;;;5012050;28;20048;-53
2023/08/22 03:42:59;;;;;;;3.30;3.10;;;20.40;61.90;;;;;;5011188;28;20132;-53
2023/08/22 03:45:28;;;;;;;3.65;3.22;;;20.40;61.80;;;;;;5031330;28;20125;-52
2023/08/22 03:48:03;;;;;;;3.72;3.42;;;20.40;61.70;;;;;;5012089;28;20045;-52
2023/08/22 03:50:31;;;;;;;3.50;3.20;;;20.40;61.80;;;;;;5026675;28;20038;-53
2023/08/22 03:53:00;;;;;;;5.28;2.97;;;20.30;61.60;;;;;;5013698;28;20049;-53
2023/08/22 03:55:29;;;;;;;3.40;3.10;;;20.30;61.60;;;;;;5014332;28;20103;-53
2023/08/22 03:58:00;;;;;;;3.63;3.28;;;20.30;61.80;;;;;;5027855;28;20033;-57
2023/08/22 04:00:27;;;;;;;5.88;3.60;;;20.20;61.70;;;;;;5008382;28;20045;-52
2023/08/22 04:02:58;;;;;;;3.45;3.13;;;20.20;61.80;;;;;;5029320;28;20037;-51
2023/08/22 04:05:26;;;;;;;3.38;3.15;;;20.20;62.10;;;;;;5008903;28;20125;-55
2023/08/22 04:07:52;;;;;;;4.15;3.03;;;20.20;61.80;;;;;;5012155;28;20660;-55
2023/08/22 04:10:20;;;;;;;4.70;3.38;;;20.10;61.80;;;;;;5030582;28;20052;-55
2023/08/22 04:12:47;;;;;;;3.65;2.67;;;20.10;61.80;;;;;;5013657;28;20522;-52
2023/08/22 04:15:19;;;;;;;3.75;2.83;;;20.10;61.80;;;;;;5012216;28;20136;-53
2023/08/22 04:17:45;;;;;;;3.87;3.10;;;20.10;61.80;;;;;;5030901;28;20713;-55
2023/08/22 04:20:16;;;;;;;3.20;2.90;;;20.10;61.90;;;;;;5013370;28;20287;-54
2023/08/22 04:22:43;;;;;;;4.15;3.33;;;20.00;61.90;;;;;;5028255;28;20141;-55
2023/08/22 04:25:13;;;;;;;3.13;2.63;;;20.00;62.00;;;;;;5012053;28;20055;-53
2023/08/22 04:27:40;;;;;;;4.35;2.85;;;20.00;62.00;;;;;;5029391;28;20029;-53
2023/08/22 04:30:13;;;;;;;3.33;2.60;;;20.00;62.10;;;;;;5011353;28;20041;-54
2023/08/22 04:32:40;;;;;;;3.10;2.80;;;20.00;62.00;;;;;;5012793;28;20037;-54
2023/08/22 04:35:08;;;;;;;2.80;2.60;;;19.90;62.00;;;;;;5012235;28;20041;-53
2023/08/22 04:37:37;;;;;;;3.42;2.88;;;19.90;62.10;;;;;;5015259;28;20074;-54
2023/08/22 04:40:09;;;;;;;3.70;3.40;;;19.90;62.10;;;;;;5028131;28;20063;-55
2023/08/22 04:42:40;;;;;;;3.90;3.00;;;19.90;62.40;;;;;;5030136;28;20133;-55
2023/08/22 04:45:09;;;;;;;3.40;3.10;;;19.90;62.20;;;;;;5012243;28;20163;-54
2023/08/22 04:47:36;;;;;;;3.78;3.13;;;19.90;62.30;;;;;;5008636;28;20038;-52
2023/08/22 04:50:04;;;;;;;4.65;3.03;;;19.90;62.40;;;;;;5011446;28;20140;-54
2023/08/22 04:52:31;;;;;;;3.15;2.85;;;19.80;62.40;;;;;;5027013;28;20033;-52
2023/08/22 04:54:58;;;;;;;4.97;3.10;;;19.90;62.50;;;;;;5011434;28;20037;-55
2023/08/22 04:57:24;;;;;;;5.38;3.20;;;19.80;62.70;;;;;;5028349;28;20180;-55
2023/08/22 04:59:53;;;;;;;3.53;3.08;;;19.80;62.80;;;;;;5026759;28;20050;-55
2023/08/22 05:02:24;;;;;;;4.05;2.92;;;19.80;63.00;;;;;;5026715;28;20530;-54
2023/08/22 05:04:52;;;;;;;4.05;3.58;;;19.80;63.00;;;;;;5012487;28;20045;-55
2023/08/22 05:07:19;;;;;;;3.13;2.92;;;19.80;63.10;;;;;;5012392;28;20645;-52
2023/08/22 05:09:45;;;;;;;3.85;3.42;;;19.90;63.20;;;;;;5009375;28;20038;-52
2023/08/22 05:12:13;;;;;;;4.90;3.70;;;19.90;63.50;;;;;;5028586;28;20096;-55
2023/08/22 05:14:41;;;;;;;4.03;3.60;;;19.90;63.60;;;;;;5012905;28;20042;-55
2023/08/22 05:17:08;;;;;;;5.43;3.25;;;19.90;63.80;;;;;;5005525;28;20054;-52
2023/08/22 05:19:37;;;;;;;3.90;3.55;;;20.00;64.00;;;;;;5009610;28;20052;-52
2023/08/22 05:22:04;;;;;;;4.57;3.42;;;20.00;64.20;;;;;;5011426;28;20561;-55
2023/08/22 05:24:31;;;;;;;9.30;4.65;;;20.00;64.30;;;;;;5008690;28;20103;-52
2023/08/22 05:26:58;;;;;;;4.95;4.40;;;20.00;64.40;;;;;;5011244;28;20107;-56
2023/08/22 05:29:24;;;;;;;4.45;4.05;;;20.10;64.60;;;;;;5027432;28;20046;-54
2023/08/22 05:31:51;;;;;;;5.32;4.20;;;20.10;64.70;;;;;;5028753;28;20049;-54
2023/08/22 05:34:18;;;;;;;4.05;3.58;;;20.10;64.70;;;;;;5010980;28;20076;-51
2023/08/22 05:36:45;;;;;;;6.25;4.10;;;20.20;64.70;;;;;;5008970;28;20516;-54
2023/08/22 05:39:12;;;;;;;4.55;4.15;;;20.20;64.70;;;;;;5005953;28;20581;-55
2023/08/22 05:41:39;;;;;;;4.65;3.67;;;20.20;64.70;;;;;;5011321;28;20056;-55
2023/08/22 05:44:08;;;;;;;5.05;4.55;;;20.30;64.70;;;;;;5009958;28;20042;-54
2023/08/22 05:46:37;;;;;;;4.50;3.75;;;20.30;64.70;;;;;;5015891;28;20049;-54
2023/08/22 05:49:05;;;;;;;5.30;3.50;;;20.30;64.50;;;;;;5010132;28;20049;-51
2023/08/22 05:51:32;;;;;;;6.30;3.97;;;20.30;64.50;;;;;;5008298;28;20156;-54
2023/08/22 05:53:58;;;;;;;3.95;3.50;;;20.30;64.50;;;;;;5008420;28;20053;-53
2023/08/22 05:56:25;;;;;;;3.67;3.38;;;20.30;64.50;;;;;;5009750;28;20048;-53
2023/08/22 05:58:52;;;;;;;4.97;3.75;;;20.30;64.50;;;;;;5024188;28;20057;-54
2023/08/22 06:01:19;;;;;;;4.95;4.00;;;20.40;64.60;;;;;;5026886;28;20153;-55
2023/08/22 06:03:45;;;;;;;4.53;3.67;;;20.30;64.70;;;;;;5010545;28;20491;-54
2023/08/22 06:06:12;;;;;;;4.47;4.05;;;20.30;64.80;;;;;;5008240;28;20046;-54
2023/08/22 06:08:39;;;;;;;6.50;4.97;;;20.40;65.00;;;;;;5010584;28;20444;-54
2023/08/22 06:11:06;;;;;;;5.88;4.15;;;20.40;65.10;;;;;;5028233;28;20056;-55
2023/08/22 06:13:32;;;;;;;5.25;4.75;;;20.50;65.30;;;;;;5010527;28;20531;-55
2023/08/22 06:15:59;;;;;;;5.20;4.80;;;20.50;65.40;;;;;;5009481;28;20127;-55
2023/08/22 06:18:26;;;;;;;5.57;5.18;;;20.50;65.50;;;;;;5010326;28;20400;-55
2023/08/22 06:20:58;;;;;;;6.05;5.55;;;20.50;65.70;;;;;;5028100;28;20842;-54
2023/08/22 06:23:25;;;;;;;7.03;5.97;;;20.60;66.20;;;;;;5010117;28;20048;-55
2023/08/22 06:25:52;;;;;;;6.63;5.93;;;20.60;65.90;;;;;;5027975;28;20089;-54
2023/08/22 06:28:18;;;;;;;7.75;6.93;;;20.70;66.20;;;;;;5028543;28;20499;-55
2023/08/22 06:30:45;;;;;;;7.20;6.43;;;20.70;66.40;;;;;;5028184;28;20030;-54
2023/08/22 06:33:12;;;;;;;7.40;6.68;;;20.80;66.60;;;;;;5028702;28;20041;-54
2023/08/22 06:35:46;;;;;;;8.35;7.50;;;20.80;66.80;;;;;;5010100;28;20042;-54
2023/08/22 06:38:12;;;;;;;8.50;7.28;;;20.90;67.20;;;;;;5010529;28;20432;-51
2023/08/22 06:40:41;;;;;;;8.50;7.47;;;21.00;67.20;;;;;;5028806;28;20061;-54
2023/08/22 06:43:09;;;;;;;10.93;8.43;;;21.10;67.30;;;;;;5028300;28;20511;-53
2023/08/22 06:45:36;;;;;;;9.38;8.38;;;21.10;67.50;;;;;;5008360;28;20065;-54
2023/08/22 06:48:03;;;;;;;8.02;7.22;;;21.30;67.80;;;;;;5009775;28;20045;-53
2023/08/22 06:50:30;;;;;;;9.40;8.20;;;21.30;67.70;;;;;;5028713;28;20091;-53
2023/08/22 06:52:57;;;;;;;8.82;7.82;;;21.40;68.00;;;;;;5029681;28;20068;-54
2023/08/22 06:55:24;;;;;;;8.98;8.10;;;21.50;67.70;;;;;;5028010;28;20104;-51
2023/08/22 06:57:50;;;;;;;11.13;9.38;;;21.60;67.60;;;;;;5028936;28;20054;-54
2023/08/22 07:00:18;;;;;;;8.52;7.72;;;21.70;67.40;;;;;;5027046;28;20080;-55
2023/08/22 07:02:46;;;;;;;14.20;10.10;;;21.80;67.60;;;;;;5028783;28;20095;-53
2023/08/22 07:05:14;;;;;;;10.13;8.85;;;21.90;67.10;;;;;;5028411;28;20042;-55
2023/08/22 07:07:41;;;;;;;11.10;10.07;;;22.00;66.70;;;;;;5026594;28;20030;-55
2023/08/22 07:10:10;;;;;;;12.65;9.90;;;22.10;66.30;;;;;;5024980;28;20041;-53
2023/08/22 07:12:37;;;;;;;13.30;10.88;;;22.20;66.10;;;;;;5008611;28;20045;-55
2023/08/22 07:15:06;;;;;;;11.98;10.63;;;22.30;66.30;;;;;;5027088;28;20052;-52
2023/08/22 07:17:32;;;;;;;13.70;10.55;;;22.30;66.50;;;;;;5028738;28;20053;-54
2023/08/22 07:20:03;;;;;;;12.00;10.80;;;22.40;66.30;;;;;;5027281;28;20041;-54
2023/08/22 07:22:30;;;;;;;19.95;10.80;;;22.50;66.20;;;;;;5030695;28;20435;-55
2023/08/22 07:24:56;;;;;;;10.80;9.88;;;22.60;65.80;;;;;;5030264;28;20037;-55
2023/08/22 07:27:23;;;;;;;11.63;10.43;;;22.70;65.70;;;;;;5032356;28;20088;-54
2023/08/22 07:29:50;;;;;;;11.23;10.13;;;22.80;65.50;;;;;;5030201;28;20057;-53
2023/08/22 07:32:20;;;;;;;10.55;9.45;;;22.90;65.20;;;;;;5031143;28;20041;-54
2023/08/22 07:34:48;;;;;;;10.23;8.95;;;22.90;65.00;;;;;;5030473;28;20049;-55
2023/08/22 07:37:15;;;;;;;11.70;10.02;;;23.00;64.40;;;;;;5033104;28;20052;-55
2023/08/22 07:39:42;;;;;;;11.68;9.02;;;23.00;64.30;;;;;;5030850;28;20132;-54
2023/08/22 07:42:09;;;;;;;10.38;7.85;;;23.10;64.10;;;;;;5030900;28;20041;-55
2023/08/22 07:44:35;;;;;;;9.95;8.95;;;23.10;64.00;;;;;;5031024;28;20133;-53
2023/08/22 07:47:02;;;;;;;9.55;8.57;;;23.20;64.00;;;;;;5032987;28;20076;-55
2023/08/22 07:49:29;;;;;;;9.23;8.30;;;23.30;64.10;;;;;;5030314;28;20069;-52
2023/08/22 07:51:56;;;;;;;9.68;8.10;;;23.30;64.10;;;;;;5030829;28;20046;-55
2023/08/22 07:54:22;;;;;;;9.13;7.68;;;23.40;63.80;;;;;;5030927;28;20084;-55
2023/08/22 07:56:49;;;;;;;9.30;7.75;;;23.60;63.60;;;;;;5013898;28;20092;-52
2023/08/22 07:59:20;;;;;;;7.25;6.40;;;23.70;63.40;;;;;;5013238;28;20124;-55
2023/08/22 08:01:46;;;;;;;7.05;5.70;;;23.70;63.30;;;;;;5029942;28;20045;-54
2023/08/22 08:04:13;;;;;;;6.28;5.63;;;23.80;62.70;;;;;;5030975;28;20127;-50
2023/08/22 08:06:41;;;;;;;7.93;6.03;;;23.90;62.10;;;;;;5031277;28;20045;-55
2023/08/22 08:09:08;;;;;;;8.00;5.55;;;24.00;61.70;;;;;;5013164;28;20080;-55
2023/08/22 08:11:44;;;;;;;8.15;6.15;;;24.20;61.90;;;;;;5030776;28;20072;-55
2023/08/22 08:14:11;;;;;;;9.35;5.70;;;24.20;62.00;;;;;;5030875;28;20072;-53
2023/08/22 08:16:38;;;;;;;5.97;5.40;;;24.30;61.30;;;;;;5031115;28;20124;-52
2023/08/22 08:19:07;;;;;;;6.03;4.68;;;24.50;61.10;;;;;;5027991;28;20044;-52
2023/08/22 08:21:34;;;;;;;8.38;5.28;;;24.60;60.50;;;;;;5030862;28;20069;-54
2023/08/22 08:24:04;;;;;;;7.10;5.07;;;24.70;60.10;;;;;;5030530;28;20041;-54
2023/08/22 08:26:31;;;;;;;9.23;4.70;;;24.90;60.10;;;;;;5030743;28;20107;-54
2023/08/22 08:28:57;;;;;;;6.00;4.43;;;25.10;59.60;;;;;;5030143;28;20044;-54
2023/08/22 08:31:24;;;;;;;5.50;3.67;;;25.20;59.10;;;;;;5010469;28;20068;-55
2023/08/22 08:33:51;;;;;;;6.72;4.07;;;25.30;58.30;;;;;;5011324;28;20033;-51
2023/08/22 08:36:17;;;;;;;4.72;3.90;;;25.50;58.30;;;;;;5031539;28;20045;-55
2023/08/22 08:38:44;;;;;;;6.10;4.32;;;25.60;57.50;;;;;;5030547;28;20052;-55
2023/08/22 08:41:12;;;;;;;5.63;4.82;;;25.70;57.10;;;;;;5028631;28;20037;-56
2023/08/22 08:43:39;;;;;;;6.40;4.47;;;25.80;56.80;;;;;;5029110;28;20053;-54
2023/08/22 08:46:06;;;;;;;5.63;5.03;;;25.90;56.60;;;;;;5031005;28;20044;-55
2023/08/22 08:48:35;;;;;;;7.82;4.85;;;26.00;56.30;;;;;;5030173;28;20061;-54
2023/08/22 08:51:04;;;;;;;9.23;5.65;;;26.10;56.40;;;;;;5029196;28;20038;-55
2023/08/22 08:53:33;;;;;;;5.10;4.10;;;26.20;56.20;;;;;;5028464;28;20114;-54
2023/08/22 08:56:00;;;;;;;7.32;4.95;;;26.30;55.80;;;;;;5030881;28;20404;-53
2023/08/22 08:58:27;;;;;;;8.85;5.15;;;26.40;55.70;;;;;;5029869;28;20535;-55
2023/08/22 09:00:55;;;;;;;6.57;4.53;;;26.40;55.50;;;;;;5030457;28;20411;-55
2023/08/22 09:03:22;;;;;;;6.70;4.38;;;26.50;55.40;;;;;;5030269;28;20120;-55
2023/08/22 09:05:51;;;;;;;5.15;4.38;;;26.50;55.90;;;;;;5030407;28;20491;-51
2023/08/22 09:08:19;;;;;;;6.07;4.80;;;26.60;55.80;;;;;;5029594;28;20372;-54
2023/08/22 09:10:51;;;;;;;7.97;4.97;;;26.60;55.30;;;;;;5028847;28;20041;-55
2023/08/22 09:13:25;;;;;;;7.18;5.60;;;26.60;55.20;;;;;;5027301;28;20041;-54
2023/08/22 09:16:07;;;;;;;6.07;4.93;;;26.70;54.80;;;;;;5027501;28;20450;-55
2023/08/22 09:18:42;;;;;;;7.57;5.05;;;26.70;54.50;;;;;;5028862;28;20049;-55
2023/08/22 09:21:10;;;;;;;5.82;5.00;;;26.80;54.40;;;;;;5030836;28;20037;-51
2023/08/22 09:23:42;;;;;;;8.75;5.05;;;26.80;54.10;;;;;;5012087;28;20476;-54
2023/08/22 09:26:10;;;;;;;6.07;4.45;;;26.80;53.80;;;;;;5010619;28;20041;-53
2023/08/22 09:28:40;;;;;;;5.93;4.15;;;26.80;54.20;;;;;;5027826;28;20033;-55
2023/08/22 09:31:07;;;;;;;6.95;5.38;;;26.90;54.20;;;;;;5029616;28;20045;-55
2023/08/22 09:33:45;;;;;;;7.85;5.70;;;26.90;53.80;;;;;;5029954;28;20040;-55
2023/08/22 09:36:12;;;;;;;7.60;4.82;;;26.90;53.40;;;;;;5019924;28;20049;-53
2023/08/22 09:38:56;;;;;;;6.85;4.95;;;26.90;53.60;;;;;;5025684;28;20045;-53
2023/08/22 09:41:24;;;;;;;18.05;5.45;;;26.90;53.20;;;;;;5025166;28;20049;-52
2023/08/22 09:43:58;;;;;;;8.82;4.93;;;27.00;53.50;;;;;;5026030;28;20046;-54
2023/08/22 09:46:26;;;;;;;7.15;3.65;;;27.00;53.40;;;;;;5030078;28;20041;-53
2023/08/22 09:48:57;;;;;;;6.50;4.28;;;27.00;53.20;;;;;;5029285;28;20084;-54
2023/08/22 09:51:24;;;;;;;5.15;3.83;;;27.10;53.30;;;;;;5028511;28;20037;-54
2023/08/22 09:53:59;;;;;;;5.18;3.45;;;27.10;53.10;;;;;;5028441;28;20052;-52
2023/08/22 09:56:26;;;;;;;7.75;4.45;;;27.20;53.20;;;;;;5028267;28;20055;-54
2023/08/22 09:58:53;;;;;;;9.48;4.57;;;27.30;53.00;;;;;;5027699;28;20057;-55
2023/08/22 10:01:20;;;;;;;7.22;4.45;;;27.40;52.80;;;;;;5026231;28;20111;-54
2023/08/22 10:03:54;;;;;;;4.35;3.88;;;27.50;53.10;;;;;;5022139;28;20572;-53
2023/08/22 10:06:29;;;;;;;5.85;4.18;;;27.60;52.50;;;;;;5024540;28;20049;-51
2023/08/22 10:09:15;;;;;;;7.15;4.55;;;27.60;52.30;;;;;;5026369;28;20511;-53
2023/08/22 10:11:48;;;;;;;5.50;3.78;;;27.60;52.30;;;;;;5028347;28;20116;-53
2023/08/22 10:14:29;;;;;;;5.57;4.47;;;27.70;52.40;;;;;;5028525;28;20053;-54
2023/08/22 10:16:57;;;;;;;5.70;4.55;;;27.70;51.60;;;;;;5027780;28;20048;-54
2023/08/22 10:19:25;;;;;;;7.18;4.70;;;27.80;51.90;;;;;;5027382;28;20045;-51
2023/08/22 10:22:09;;;;;;;6.68;4.25;;;27.80;51.60;;;;;;5027845;28;21546;-52
2023/08/22 10:24:36;;;;;;;9.00;4.35;;;27.90;51.60;;;;;;5028056;28;20069;-54
2023/08/22 10:27:09;;;;;;;6.38;4.40;;;27.90;51.50;;;;;;5028169;28;20095;-52
2023/08/22 10:29:41;;;;;;;6.80;4.43;;;28.00;51.40;;;;;;5026634;28;20065;-53
2023/08/22 10:32:07;;;;;;;6.75;3.88;;;28.10;51.20;;;;;;5021688;28;20041;-52
2023/08/22 10:34:34;;;;;;;6.63;4.47;;;28.20;50.70;;;;;;5027849;28;20558;-52
2023/08/22 10:37:13;;;;;;;6.82;4.65;;;28.20;50.80;;;;;;5021328;28;20047;-54
2023/08/22 10:39:48;;;;;;;6.63;4.82;;;28.20;50.40;;;;;;5027074;28;20045;-50
2023/08/22 10:42:20;;;;;;;8.07;4.55;;;28.30;50.50;;;;;;5028761;28;20559;-54
2023/08/22 10:44:53;;;;;;;5.45;4.28;;;28.20;50.40;;;;;;5028840;28;20103;-50
2023/08/22 10:47:22;;;;;;;4.30;3.80;;;28.20;50.10;;;;;;5030317;28;20042;-53
2023/08/22 10:49:50;;;;;;;5.82;4.25;;;28.20;50.30;;;;;;5028814;28;20037;-54
2023/08/22 10:52:37;;;;;;;6.75;4.32;;;28.20;50.30;;;;;;5029335;28;20061;-53
2023/08/22 10:55:12;;;;;;;5.13;4.60;;;28.20;50.80;;;;;;5028100;28;20550;-54
2023/08/22 10:57:54;;;;;;;5.57;4.07;;;28.20;50.40;;;;;;5031964;28;20049;-54
2023/08/22 11:00:22;;;;;;;6.47;4.45;;;28.20;50.40;;;;;;5031417;28;20051;-52
2023/08/22 11:02:59;;;;;;;6.22;3.65;;;28.20;50.70;;;;;;5033174;28;20565;-52
2023/08/22 11:05:30;;;;;;;5.78;3.80;;;28.30;49.20;;;;;;5051852;23;20045;-56
2023/08/22 11:07:56;;;;;;;5.18;3.47;;;28.30;49.10;;;;;;5031864;28;20044;-56
2023/08/22 11:10:24;;;;;;;4.82;2.45;;;28.40;48.90;;;;;;5032167;28;20041;-56
2023/08/22 11:12:54;;;;;;;5.70;3.22;;;28.40;48.60;;;;;;5031077;28;20759;-56
2023/08/22 11:15:21;;;;;;;3.63;2.70;;;28.40;48.00;;;;;;5031452;28;20061;-57
2023/08/22 11:17:50;;;;;;;2.72;2.53;;;28.40;48.50;;;;;;5031957;28;20499;-56
2023/08/22 11:20:23;;;;;;;3.58;2.63;;;28.40;48.00;;;;;;5032096;28;20050;-57
2023/08/22 11:22:49;;;;;;;;;;;28.50;48.30;;;;;;5032289;28;20080;-57
2023/08/22 11:25:25;;;;;;;3.83;2.63;;;28.60;49.10;;;;;;5031391;28;19925;-56
2023/08/22 11:27:53;;;;;;;2.75;2.55;;;28.60;47.90;;;;;;5032147;28;20037;-56
2023/08/22 11:30:20;;;;;;;3.70;2.47;;;28.60;48.40;;;;;;5008600;28;20541;-57
2023/08/22 11:32:47;;;;;;;5.35;2.78;;;28.70;47.80;;;;;;5032250;28;20129;-56
2023/08/22 11:35:16;;;;;;;4.72;2.78;;;28.70;47.60;;;;;;5031889;28;20077;-57
2023/08/22 11:37:42;;;;;;;4.85;2.55;;;28.70;47.80;;;;;;5030492;28;20041;-55
2023/08/22 11:40:14;;;;;;;3.38;2.67;;;28.80;47.40;;;;;;5031228;28;20392;-56
2023/08/22 11:42:47;;;;;;;3.80;2.40;;;28.80;47.80;;;;;;5031853;28;20049;-57
2023/08/22 11:45:17;;;;;;;2.65;2.03;;;28.90;47.30;;;;;;5030952;28;20065;-56
2023/08/22 11:47:49;;;;;;;4.78;1.98;;;28.90;46.80;;;;;;5031780;28;20041;-56
2023/08/22 11:50:18;;;;;;;3.03;1.77;;;28.90;45.60;;;;;;5031316;28;20352;-57
2023/08/22 11:52:51;;;;;;;2.47;2.03;;;28.90;45.80;;;;;;5031282;28;20069;-53
2023/08/22 11:55:26;;;;;;;3.53;1.50;;;29.00;45.90;;;;;;5025133;28;20049;-53
2023/08/22 11:58:00;;;;;;;3.08;1.70;;;28.90;44.90;;;;;;5022596;28;20038;-54
2023/08/22 12:00:30;;;;;;;4.90;2.55;;;28.90;45.80;;;;;;5024934;28;20141;-54
2023/08/22 12:02:59;;;;;;;2.33;1.98;;;28.90;46.20;;;;;;5026295;28;20116;-54
2023/08/22 12:05:37;;;;;;;2.58;1.58;;;29.00;46.30;;;;;;5022650;28;20044;-52
2023/08/22 12:08:07;;;;;;;5.88;2.13;;;29.00;46.20;;;;;;5025497;28;20069;-54
2023/08/22 12:10:53;;;;;;;6.03;2.17;;;29.00;46.30;;;;;;5023434;28;20068;-53
2023/08/22 12:13:22;;;;;;;3.78;1.70;;;29.00;46.60;;;;;;5022836;28;20072;-55
2023/08/22 12:15:50;;;;;;;2.72;1.48;;;29.10;46.80;;;;;;5022064;28;20056;-54
2023/08/22 12:18:17;;;;;;;7.93;2.35;;;29.20;47.10;;;;;;5031076;28;20084;-55
2023/08/22 12:20:48;;;;;;;3.03;2.17;;;29.30;46.60;;;;;;5026068;28;20091;-55
2023/08/22 12:23:15;;;;;;;4.47;3.05;;;29.50;46.50;;;;;;5025627;28;20060;-52
2023/08/22 12:25:43;;;;;;;5.13;2.45;;;29.60;46.90;;;;;;5028990;28;20113;-54
2023/08/22 12:28:10;;;;;;;2.53;2.28;;;29.70;46.60;;;;;;5030446;28;20042;-55
2023/08/22 12:30:38;;;;;;;5.05;3.20;;;29.70;46.30;;;;;;5028548;28;20075;-55
2023/08/22 12:33:07;;;;;;;3.53;2.20;;;29.80;45.80;;;;;;5026730;28;20073;-55
2023/08/22 12:35:36;;;;;;;3.20;2.70;;;29.90;45.60;;;;;;5027582;28;20038;-54
2023/08/22 12:38:03;;;;;;;4.35;3.00;;;30.00;46.10;;;;;;5025990;28;20042;-55
2023/08/22 12:40:30;;;;;;;4.35;2.88;;;30.10;45.40;;;;;;5029126;28;20053;-51
2023/08/22 12:42:59;;;;;;;2.22;2.00;;;30.20;45.00;;;;;;5031136;28;20104;-55
2023/08/22 12:45:26;;;;;;;4.25;2.10;;;30.30;45.10;;;;;;5030335;28;20120;-53
2023/08/22 12:47:53;;;;;;;3.60;1.70;;;30.50;45.30;;;;;;5029751;28;20111;-56
2023/08/22 12:50:20;;;;;;;2.42;1.85;;;30.60;45.10;;;;;;5012480;28;20052;-56
2023/08/22 12:52:49;;;;;;;2.03;1.52;;;30.70;44.20;;;;;;5028512;28;20415;-57
2023/08/22 12:55:17;;;;;;;2.60;1.48;;;30.80;43.60;;;;;;5023866;28;20057;-54